sensor_id;sensor_type;location;lat;lon;timestamp;P1;durP1;ratioP1;P2;durP2;ratioP2
15616;SDS011;7908;51.688;7.130;2022-11-15T00:01:59;1073.47;;;979.30;;
15616;SDS011;7908;51.688;7.130;2022-11-15T00:04:30;1149.80;;;999.90;;
15616;SDS011;7908;51.688;7.130;2022-11-15T00:06:59;1118.20;;;999.90;;
15616;SDS011;7908;51.688;7.130;2022-11-15T00:09:27;1187.20;;;999.90;;
15616;SDS011;7908;51.688;7.130;2022-11-15T00:11:56;1123.17;;;999.90;;
15616;SDS011;7908;51.688;7.130;2022-11-15T00:14:25;1084.87;;;987.33;;
15616;SDS011;7908;51.688;7.130;2022-11-15T00:16:55;1133.03;;;999.90;;
15616;SDS011;7908;51.688;7.130;2022-11-15T00:19:23;1217.77;;;999.90;;
15616;SDS011;7908;51.688;7.130;2022-11-15T00:21:52;917.97;;;829.53;;
15616;SDS011;7908;51.688;7.130;2022-11-15T00:24:21;1056.67;;;961.27;;
15616;SDS011;7908;51.688;7.130;2022-11-15T00:26:50;1054.73;;;960.23;;
15616;SDS011;7908;51.688;7.130;2022-11-15T00:29:19;1143.33;;;999.90;;
15616;SDS011;7908;51.688;7.130;2022-11-15T00:31:47;1057.77;;;965.57;;
15616;SDS011;7908;51.688;7.130;2022-11-15T00:34:18;1083.97;;;987.37;;
15616;SDS011;7908;51.688;7.130;2022-11-15T00:36:46;1173.83;;;999.90;;
15616;SDS011;7908;51.688;7.130;2022-11-15T00:39:15;1096.87;;;995.23;;
15616;SDS011;7908;51.688;7.130;2022-11-15T00:41:44;949.47;;;860.63;;
15616;SDS011;7908;51.688;7.130;2022-11-15T00:44:12;1074.47;;;978.43;;
15616;SDS011;7908;51.688;7.130;2022-11-15T00:46:41;1045.93;;;952.20;;
15616;SDS011;7908;51.688;7.130;2022-11-15T00:49:10;1058.90;;;965.77;;
15616;SDS011;7908;51.688;7.130;2022-11-15T00:51:40;994.13;;;904.97;;
15616;SDS011;7908;51.688;7.130;2022-11-15T00:54:08;13.33;;;11.93;;
15616;SDS011;7908;51.688;7.130;2022-11-15T00:56:37;1051.50;;;951.53;;
15616;SDS011;7908;51.688;7.130;2022-11-15T00:59:06;1038.27;;;940.20;;
15616;SDS011;7908;51.688;7.130;2022-11-15T01:01:34;11.43;;;10.33;;
15616;SDS011;7908;51.688;7.130;2022-11-15T01:04:03;977.87;;;890.10;;
15616;SDS011;7908;51.688;7.130;2022-11-15T01:06:32;294.63;;;266.83;;
15616;SDS011;7908;51.688;7.130;2022-11-15T01:09:02;13.20;;;11.90;;
15616;SDS011;7908;51.688;7.130;2022-11-15T01:11:31;13.20;;;11.80;;
15616;SDS011;7908;51.688;7.130;2022-11-15T01:13:59;993.13;;;906.20;;
15616;SDS011;7908;51.688;7.130;2022-11-15T01:16:28;530.70;;;486.57;;
15616;SDS011;7908;51.688;7.130;2022-11-15T01:18:56;721.87;;;660.90;;
15616;SDS011;7908;51.688;7.130;2022-11-15T01:21:25;93.27;;;85.60;;
15616;SDS011;7908;51.688;7.130;2022-11-15T01:23:54;10.80;;;8.60;;
15616;SDS011;7908;51.688;7.130;2022-11-15T01:26:24;12.10;;;10.70;;
15616;SDS011;7908;51.688;7.130;2022-11-15T01:28:53;10.90;;;8.60;;
15616;SDS011;7908;51.688;7.130;2022-11-15T01:31:22;11.93;;;10.73;;
15616;SDS011;7908;51.688;7.130;2022-11-15T01:33:50;13.47;;;11.80;;
15616;SDS011;7908;51.688;7.130;2022-11-15T01:36:20;13.07;;;11.07;;
15616;SDS011;7908;51.688;7.130;2022-11-15T01:38:52;15.17;;;12.50;;
15616;SDS011;7908;51.688;7.130;2022-11-15T01:41:22;24.83;;;22.60;;
15616;SDS011;7908;51.688;7.130;2022-11-15T01:43:55;905.80;;;835.03;;
15616;SDS011;7908;51.688;7.130;2022-11-15T01:46:27;1021.90;;;938.90;;
15616;SDS011;7908;51.688;7.130;2022-11-15T01:48:59;12.50;;;11.30;;
15616;SDS011;7908;51.688;7.130;2022-11-15T01:51:33;11.53;;;10.30;;
15616;SDS011;7908;51.688;7.130;2022-11-15T01:54:03;30.80;;;28.10;;
15616;SDS011;7908;51.688;7.130;2022-11-15T01:56:40;24.07;;;21.83;;
15616;SDS011;7908;51.688;7.130;2022-11-15T01:59:13;49.60;;;45.67;;
15616;SDS011;7908;51.688;7.130;2022-11-15T02:01:42;12.60;;;11.27;;
15616;SDS011;7908;51.688;7.130;2022-11-15T02:04:12;11.13;;;9.30;;
15616;SDS011;7908;51.688;7.130;2022-11-15T02:06:43;12.73;;;11.23;;
15616;SDS011;7908;51.688;7.130;2022-11-15T02:09:14;13.87;;;10.10;;
15616;SDS011;7908;51.688;7.130;2022-11-15T02:11:45;13.17;;;10.83;;
15616;SDS011;7908;51.688;7.130;2022-11-15T02:14:15;10.63;;;9.60;;
15616;SDS011;7908;51.688;7.130;2022-11-15T02:16:47;12.87;;;11.47;;
15616;SDS011;7908;51.688;7.130;2022-11-15T02:19:28;10.80;;;9.70;;
15616;SDS011;7908;51.688;7.130;2022-11-15T02:22:10;11.93;;;10.60;;
15616;SDS011;7908;51.688;7.130;2022-11-15T02:24:57;13.43;;;12.03;;
15616;SDS011;7908;51.688;7.130;2022-11-15T02:27:46;12.00;;;10.90;;
15616;SDS011;7908;51.688;7.130;2022-11-15T02:30:45;12.90;;;10.80;;
15616;SDS011;7908;51.688;7.130;2022-11-15T02:33:21;11.33;;;10.13;;
15616;SDS011;7908;51.688;7.130;2022-11-15T02:36:00;10.87;;;9.50;;
15616;SDS011;7908;51.688;7.130;2022-11-15T02:38:33;12.50;;;11.17;;
15616;SDS011;7908;51.688;7.130;2022-11-15T02:41:07;11.00;;;9.80;;
15616;SDS011;7908;51.688;7.130;2022-11-15T02:43:39;11.47;;;9.10;;
15616;SDS011;7908;51.688;7.130;2022-11-15T02:46:28;11.83;;;9.63;;
15616;SDS011;7908;51.688;7.130;2022-11-15T02:49:19;11.23;;;9.77;;
15616;SDS011;7908;51.688;7.130;2022-11-15T02:51:49;13.37;;;11.00;;
15616;SDS011;7908;51.688;7.130;2022-11-15T02:54:21;14.17;;;11.27;;
15616;SDS011;7908;51.688;7.130;2022-11-15T02:56:50;13.20;;;11.73;;
15616;SDS011;7908;51.688;7.130;2022-11-15T02:59:35;17.83;;;15.30;;
15616;SDS011;7908;51.688;7.130;2022-11-15T03:02:24;19.70;;;15.93;;
15616;SDS011;7908;51.688;7.130;2022-11-15T03:05:02;18.27;;;15.57;;
15616;SDS011;7908;51.688;7.130;2022-11-15T03:07:40;22.23;;;18.60;;
15616;SDS011;7908;51.688;7.130;2022-11-15T03:10:17;22.93;;;17.97;;
15616;SDS011;7908;51.688;7.130;2022-11-15T03:12:51;22.50;;;17.93;;
15616;SDS011;7908;51.688;7.130;2022-11-15T03:15:25;21.17;;;16.23;;
15616;SDS011;7908;51.688;7.130;2022-11-15T03:17:59;20.23;;;15.87;;
15616;SDS011;7908;51.688;7.130;2022-11-15T03:20:32;17.47;;;13.77;;
15616;SDS011;7908;51.688;7.130;2022-11-15T03:23:04;18.40;;;14.13;;
15616;SDS011;7908;51.688;7.130;2022-11-15T03:25:38;14.33;;;10.93;;
15616;SDS011;7908;51.688;7.130;2022-11-15T03:28:12;12.77;;;11.27;;
15616;SDS011;7908;51.688;7.130;2022-11-15T03:30:44;13.23;;;10.87;;
15616;SDS011;7908;51.688;7.130;2022-11-15T03:33:17;12.23;;;9.87;;
15616;SDS011;7908;51.688;7.130;2022-11-15T03:35:48;12.60;;;10.20;;
15616;SDS011;7908;51.688;7.130;2022-11-15T03:38:20;14.53;;;10.37;;
15616;SDS011;7908;51.688;7.130;2022-11-15T03:40:54;11.20;;;8.43;;
15616;SDS011;7908;51.688;7.130;2022-11-15T03:43:29;9.37;;;7.30;;
15616;SDS011;7908;51.688;7.130;2022-11-15T03:46:05;10.57;;;8.33;;
15616;SDS011;7908;51.688;7.130;2022-11-15T03:48:40;11.50;;;9.17;;
15616;SDS011;7908;51.688;7.130;2022-11-15T03:51:13;10.50;;;8.60;;
15616;SDS011;7908;51.688;7.130;2022-11-15T03:53:42;11.53;;;8.63;;
15616;SDS011;7908;51.688;7.130;2022-11-15T03:56:10;12.27;;;9.90;;
15616;SDS011;7908;51.688;7.130;2022-11-15T03:58:39;13.67;;;9.30;;
15616;SDS011;7908;51.688;7.130;2022-11-15T04:01:08;10.23;;;8.03;;
15616;SDS011;7908;51.688;7.130;2022-11-15T04:03:36;13.10;;;9.00;;
15616;SDS011;7908;51.688;7.130;2022-11-15T04:06:06;9.63;;;8.50;;
15616;SDS011;7908;51.688;7.130;2022-11-15T04:08:35;11.83;;;9.13;;
15616;SDS011;7908;51.688;7.130;2022-11-15T04:11:03;12.27;;;8.33;;
15616;SDS011;7908;51.688;7.130;2022-11-15T04:13:32;12.73;;;8.37;;
15616;SDS011;7908;51.688;7.130;2022-11-15T04:16:01;12.47;;;8.17;;
15616;SDS011;7908;51.688;7.130;2022-11-15T04:18:30;9.77;;;8.10;;
15616;SDS011;7908;51.688;7.130;2022-11-15T04:20:58;11.37;;;8.80;;
15616;SDS011;7908;51.688;7.130;2022-11-15T04:23:46;11.73;;;8.10;;
15616;SDS011;7908;51.688;7.130;2022-11-15T04:26:28;12.83;;;9.23;;
15616;SDS011;7908;51.688;7.130;2022-11-15T04:28:57;13.00;;;8.47;;
15616;SDS011;7908;51.688;7.130;2022-11-15T04:31:43;12.30;;;9.63;;
15616;SDS011;7908;51.688;7.130;2022-11-15T04:34:11;10.00;;;8.03;;
15616;SDS011;7908;51.688;7.130;2022-11-15T04:36:40;10.07;;;8.90;;
15616;SDS011;7908;51.688;7.130;2022-11-15T04:39:28;11.07;;;7.90;;
15616;SDS011;7908;51.688;7.130;2022-11-15T04:41:56;9.77;;;8.03;;
15616;SDS011;7908;51.688;7.130;2022-11-15T04:44:25;8.70;;;7.27;;
15616;SDS011;7908;51.688;7.130;2022-11-15T04:46:53;8.63;;;7.07;;
15616;SDS011;7908;51.688;7.130;2022-11-15T04:49:22;8.20;;;7.40;;
15616;SDS011;7908;51.688;7.130;2022-11-15T04:51:51;11.03;;;8.83;;
15616;SDS011;7908;51.688;7.130;2022-11-15T04:54:20;12.90;;;9.00;;
15616;SDS011;7908;51.688;7.130;2022-11-15T04:56:50;12.07;;;10.13;;
15616;SDS011;7908;51.688;7.130;2022-11-15T04:59:18;12.40;;;9.17;;
15616;SDS011;7908;51.688;7.130;2022-11-15T05:01:47;12.57;;;8.17;;
15616;SDS011;7908;51.688;7.130;2022-11-15T05:04:16;10.73;;;8.50;;
15616;SDS011;7908;51.688;7.130;2022-11-15T05:06:51;13.97;;;10.13;;
15616;SDS011;7908;51.688;7.130;2022-11-15T05:09:19;16.43;;;10.27;;
15616;SDS011;7908;51.688;7.130;2022-11-15T05:11:50;14.63;;;8.97;;
15616;SDS011;7908;51.688;7.130;2022-11-15T05:14:18;12.40;;;8.90;;
15616;SDS011;7908;51.688;7.130;2022-11-15T05:16:47;11.97;;;9.10;;
15616;SDS011;7908;51.688;7.130;2022-11-15T05:19:15;12.13;;;9.50;;
15616;SDS011;7908;51.688;7.130;2022-11-15T05:21:44;11.33;;;7.97;;
15616;SDS011;7908;51.688;7.130;2022-11-15T05:24:12;10.30;;;9.10;;
15616;SDS011;7908;51.688;7.130;2022-11-15T05:26:41;12.73;;;8.40;;
15616;SDS011;7908;51.688;7.130;2022-11-15T05:29:11;29.93;;;27.17;;
15616;SDS011;7908;51.688;7.130;2022-11-15T05:31:40;765.10;;;699.43;;
15616;SDS011;7908;51.688;7.130;2022-11-15T05:34:09;412.10;;;373.83;;
15616;SDS011;7908;51.688;7.130;2022-11-15T05:36:38;18.80;;;13.50;;
15616;SDS011;7908;51.688;7.130;2022-11-15T05:39:11;13.80;;;10.93;;
15616;SDS011;7908;51.688;7.130;2022-11-15T05:41:40;12.73;;;11.20;;
15616;SDS011;7908;51.688;7.130;2022-11-15T05:44:14;12.20;;;10.50;;
15616;SDS011;7908;51.688;7.130;2022-11-15T05:46:47;15.37;;;11.23;;
15616;SDS011;7908;51.688;7.130;2022-11-15T05:49:21;858.70;;;789.13;;
15616;SDS011;7908;51.688;7.130;2022-11-15T05:51:52;12.30;;;11.00;;
15616;SDS011;7908;51.688;7.130;2022-11-15T05:54:21;10.93;;;8.73;;
15616;SDS011;7908;51.688;7.130;2022-11-15T05:56:51;10.10;;;8.43;;
15616;SDS011;7908;51.688;7.130;2022-11-15T05:59:23;9.67;;;8.60;;
15616;SDS011;7908;51.688;7.130;2022-11-15T06:01:52;9.97;;;8.57;;
15616;SDS011;7908;51.688;7.130;2022-11-15T06:04:21;8.00;;;7.20;;
15616;SDS011;7908;51.688;7.130;2022-11-15T06:06:50;8.60;;;7.80;;
15616;SDS011;7908;51.688;7.130;2022-11-15T06:09:18;10.87;;;8.10;;
15616;SDS011;7908;51.688;7.130;2022-11-15T06:11:47;13.57;;;10.73;;
15616;SDS011;7908;51.688;7.130;2022-11-15T06:14:16;969.33;;;877.87;;
15616;SDS011;7908;51.688;7.130;2022-11-15T06:16:46;815.33;;;743.43;;
15616;SDS011;7908;51.688;7.130;2022-11-15T06:19:14;44.00;;;26.70;;
15616;SDS011;7908;51.688;7.130;2022-11-15T06:21:43;1055.57;;;968.03;;
15616;SDS011;7908;51.688;7.130;2022-11-15T06:24:11;1021.73;;;932.77;;
15616;SDS011;7908;51.688;7.130;2022-11-15T06:26:40;10.13;;;8.30;;
15616;SDS011;7908;51.688;7.130;2022-11-15T06:29:09;1109.67;;;999.67;;
15616;SDS011;7908;51.688;7.130;2022-11-15T06:31:37;1065.47;;;974.10;;
15616;SDS011;7908;51.688;7.130;2022-11-15T06:34:07;1085.17;;;993.23;;
15616;SDS011;7908;51.688;7.130;2022-11-15T06:36:36;861.63;;;780.47;;
15616;SDS011;7908;51.688;7.130;2022-11-15T06:39:05;16.87;;;12.27;;
15616;SDS011;7908;51.688;7.130;2022-11-15T06:41:34;184.23;;;170.43;;
15616;SDS011;7908;51.688;7.130;2022-11-15T06:44:02;13.20;;;10.13;;
15616;SDS011;7908;51.688;7.130;2022-11-15T06:46:31;14.47;;;11.90;;
15616;SDS011;7908;51.688;7.130;2022-11-15T06:49:00;28.47;;;19.33;;
15616;SDS011;7908;51.688;7.130;2022-11-15T06:51:36;31.63;;;22.00;;
15616;SDS011;7908;51.688;7.130;2022-11-15T06:54:05;29.03;;;20.93;;
15616;SDS011;7908;51.688;7.130;2022-11-15T06:56:33;26.37;;;19.40;;
15616;SDS011;7908;51.688;7.130;2022-11-15T06:59:02;26.33;;;17.40;;
15616;SDS011;7908;51.688;7.130;2022-11-15T07:01:31;19.93;;;12.73;;
15616;SDS011;7908;51.688;7.130;2022-11-15T07:04:00;1116.67;;;999.90;;
15616;SDS011;7908;51.688;7.130;2022-11-15T07:06:29;1214.90;;;999.90;;
15616;SDS011;7908;51.688;7.130;2022-11-15T07:08:59;612.03;;;562.00;;
15616;SDS011;7908;51.688;7.130;2022-11-15T07:11:29;317.70;;;292.50;;
15616;SDS011;7908;51.688;7.130;2022-11-15T07:13:59;477.23;;;438.57;;
15616;SDS011;7908;51.688;7.130;2022-11-15T07:16:28;19.63;;;17.47;;
15616;SDS011;7908;51.688;7.130;2022-11-15T07:18:56;17.80;;;16.00;;
15616;SDS011;7908;51.688;7.130;2022-11-15T07:21:25;17.87;;;14.53;;
15616;SDS011;7908;51.688;7.130;2022-11-15T07:23:54;28.60;;;21.13;;
15616;SDS011;7908;51.688;7.130;2022-11-15T07:26:24;31.53;;;22.33;;
15616;SDS011;7908;51.688;7.130;2022-11-15T07:28:53;18.80;;;13.67;;
15616;SDS011;7908;51.688;7.130;2022-11-15T07:31:21;22.77;;;15.70;;
15616;SDS011;7908;51.688;7.130;2022-11-15T07:33:50;24.20;;;17.20;;
15616;SDS011;7908;51.688;7.130;2022-11-15T07:36:19;18.13;;;13.93;;
15616;SDS011;7908;51.688;7.130;2022-11-15T07:38:47;12.13;;;9.13;;
15616;SDS011;7908;51.688;7.130;2022-11-15T07:41:16;13.67;;;12.17;;
15616;SDS011;7908;51.688;7.130;2022-11-15T07:43:46;20.03;;;15.10;;
15616;SDS011;7908;51.688;7.130;2022-11-15T07:46:15;938.73;;;864.33;;
15616;SDS011;7908;51.688;7.130;2022-11-15T07:48:43;1030.77;;;942.70;;
15616;SDS011;7908;51.688;7.130;2022-11-15T07:51:12;1017.57;;;929.83;;
15616;SDS011;7908;51.688;7.130;2022-11-15T07:53:41;857.57;;;775.40;;
15616;SDS011;7908;51.688;7.130;2022-11-15T07:56:11;1008.03;;;917.57;;
15616;SDS011;7908;51.688;7.130;2022-11-15T07:58:40;1074.80;;;982.03;;
15616;SDS011;7908;51.688;7.130;2022-11-15T08:01:10;15.20;;;10.87;;
15616;SDS011;7908;51.688;7.130;2022-11-15T08:03:40;10.37;;;8.00;;
15616;SDS011;7908;51.688;7.130;2022-11-15T08:06:09;16.47;;;10.97;;
15616;SDS011;7908;51.688;7.130;2022-11-15T08:08:38;9.53;;;6.70;;
15616;SDS011;7908;51.688;7.130;2022-11-15T08:11:06;1056.73;;;968.20;;
15616;SDS011;7908;51.688;7.130;2022-11-15T08:13:35;768.63;;;705.87;;
15616;SDS011;7908;51.688;7.130;2022-11-15T08:16:04;1100.73;;;998.83;;
15616;SDS011;7908;51.688;7.130;2022-11-15T08:18:35;26.40;;;20.87;;
15616;SDS011;7908;51.688;7.130;2022-11-15T08:21:04;674.63;;;616.50;;
15616;SDS011;7908;51.688;7.130;2022-11-15T08:23:32;1146.33;;;999.90;;
15616;SDS011;7908;51.688;7.130;2022-11-15T08:26:02;13.13;;;9.90;;
15616;SDS011;7908;51.688;7.130;2022-11-15T08:28:32;1013.70;;;927.27;;
15616;SDS011;7908;51.688;7.130;2022-11-15T08:31:00;12.90;;;11.17;;
15616;SDS011;7908;51.688;7.130;2022-11-15T08:33:30;11.70;;;9.63;;
15616;SDS011;7908;51.688;7.130;2022-11-15T08:36:02;12.10;;;7.00;;
15616;SDS011;7908;51.688;7.130;2022-11-15T08:38:33;1103.10;;;998.43;;
15616;SDS011;7908;51.688;7.130;2022-11-15T08:41:02;1104.30;;;998.57;;
15616;SDS011;7908;51.688;7.130;2022-11-15T08:43:32;1075.43;;;990.00;;
15616;SDS011;7908;51.688;7.130;2022-11-15T08:46:01;6.47;;;5.00;;
15616;SDS011;7908;51.688;7.130;2022-11-15T08:48:30;4.70;;;4.27;;
15616;SDS011;7908;51.688;7.130;2022-11-15T08:50:59;5.13;;;4.23;;
15616;SDS011;7908;51.688;7.130;2022-11-15T08:53:29;4.90;;;3.30;;
15616;SDS011;7908;51.688;7.130;2022-11-15T08:55:57;1115.47;;;999.90;;
15616;SDS011;7908;51.688;7.130;2022-11-15T08:58:26;1099.07;;;997.13;;
15616;SDS011;7908;51.688;7.130;2022-11-15T09:00:55;3.33;;;2.80;;
15616;SDS011;7908;51.688;7.130;2022-11-15T09:03:25;3.53;;;2.73;;
15616;SDS011;7908;51.688;7.130;2022-11-15T09:05:55;428.33;;;393.73;;
15616;SDS011;7908;51.688;7.130;2022-11-15T09:08:25;3.40;;;2.83;;
15616;SDS011;7908;51.688;7.130;2022-11-15T09:11:16;1056.07;;;969.33;;
15616;SDS011;7908;51.688;7.130;2022-11-15T09:13:46;1040.60;;;950.63;;
15616;SDS011;7908;51.688;7.130;2022-11-15T09:16:15;5.00;;;1.30;;
15616;SDS011;7908;51.688;7.130;2022-11-15T09:18:44;187.13;;;175.73;;
15616;SDS011;7908;51.688;7.130;2022-11-15T09:21:12;719.07;;;647.20;;
15616;SDS011;7908;51.688;7.130;2022-11-15T09:23:41;3.33;;;1.20;;
15616;SDS011;7908;51.688;7.130;2022-11-15T09:26:10;586.13;;;473.93;;
15616;SDS011;7908;51.688;7.130;2022-11-15T09:28:40;730.57;;;659.57;;
15616;SDS011;7908;51.688;7.130;2022-11-15T09:31:09;756.40;;;683.43;;
15616;SDS011;7908;51.688;7.130;2022-11-15T09:33:38;603.67;;;532.00;;
15616;SDS011;7908;51.688;7.130;2022-11-15T09:36:07;684.17;;;616.00;;
15616;SDS011;7908;51.688;7.130;2022-11-15T09:38:37;16.50;;;4.10;;
15616;SDS011;7908;51.688;7.130;2022-11-15T09:41:25;2.27;;;1.60;;
15616;SDS011;7908;51.688;7.130;2022-11-15T09:47:10;2.57;;;1.33;;
15616;SDS011;7908;51.688;7.130;2022-11-15T09:49:52;4.27;;;1.40;;
15616;SDS011;7908;51.688;7.130;2022-11-15T09:52:23;2.47;;;1.57;;
15616;SDS011;7908;51.688;7.130;2022-11-15T09:54:53;2.60;;;1.80;;
15616;SDS011;7908;51.688;7.130;2022-11-15T09:57:24;2.53;;;1.83;;
15616;SDS011;7908;51.688;7.130;2022-11-15T10:00:02;1.57;;;1.40;;
15616;SDS011;7908;51.688;7.130;2022-11-15T10:03:06;3.47;;;2.10;;
15616;SDS011;7908;51.688;7.130;2022-11-15T10:05:39;3.67;;;1.77;;
15616;SDS011;7908;51.688;7.130;2022-11-15T10:08:22;3.77;;;2.10;;
15616;SDS011;7908;51.688;7.130;2022-11-15T10:11:15;5.30;;;1.80;;
15616;SDS011;7908;51.688;7.130;2022-11-15T10:14:04;3.17;;;2.10;;
15616;SDS011;7908;51.688;7.130;2022-11-15T10:16:56;3.87;;;2.03;;
15616;SDS011;7908;51.688;7.130;2022-11-15T10:19:51;4.87;;;3.87;;
15616;SDS011;7908;51.688;7.130;2022-11-15T10:22:34;3.97;;;1.73;;
15616;SDS011;7908;51.688;7.130;2022-11-15T10:25:20;2.37;;;1.80;;
15616;SDS011;7908;51.688;7.130;2022-11-15T10:27:52;2.70;;;1.70;;
15616;SDS011;7908;51.688;7.130;2022-11-15T10:30:31;2.47;;;1.73;;
15616;SDS011;7908;51.688;7.130;2022-11-15T10:33:16;2.17;;;1.30;;
15616;SDS011;7908;51.688;7.130;2022-11-15T10:35:57;4.10;;;2.13;;
15616;SDS011;7908;51.688;7.130;2022-11-15T10:38:51;2.70;;;2.23;;
15616;SDS011;7908;51.688;7.130;2022-11-15T10:41:22;3.53;;;2.30;;
15616;SDS011;7908;51.688;7.130;2022-11-15T10:47:04;2.23;;;1.40;;
15616;SDS011;7908;51.688;7.130;2022-11-15T10:49:57;4.37;;;1.37;;
15616;SDS011;7908;51.688;7.130;2022-11-15T10:52:28;3.80;;;1.60;;
15616;SDS011;7908;51.688;7.130;2022-11-15T10:55:00;2.67;;;1.90;;
15616;SDS011;7908;51.688;7.130;2022-11-15T10:57:34;6.53;;;2.37;;
15616;SDS011;7908;51.688;7.130;2022-11-15T11:00:06;1.63;;;1.40;;
15616;SDS011;7908;51.688;7.130;2022-11-15T11:02:57;4.53;;;2.27;;
15616;SDS011;7908;51.688;7.130;2022-11-15T11:05:31;17.17;;;15.37;;
15616;SDS011;7908;51.688;7.130;2022-11-15T11:08:20;40.70;;;32.77;;
15616;SDS011;7908;51.688;7.130;2022-11-15T11:10:54;19.40;;;15.93;;
15616;SDS011;7908;51.688;7.130;2022-11-15T11:13:29;29.63;;;24.33;;
15616;SDS011;7908;51.688;7.130;2022-11-15T11:16:14;15.23;;;12.33;;
15616;SDS011;7908;51.688;7.130;2022-11-15T11:18:52;7.70;;;4.90;;
15616;SDS011;7908;51.688;7.130;2022-11-15T11:21:33;10.23;;;6.27;;
15616;SDS011;7908;51.688;7.130;2022-11-15T11:24:12;5.27;;;3.57;;
15616;SDS011;7908;51.688;7.130;2022-11-15T11:26:46;10.17;;;6.17;;
15616;SDS011;7908;51.688;7.130;2022-11-15T11:29:29;9.93;;;6.03;;
15616;SDS011;7908;51.688;7.130;2022-11-15T11:32:13;4.30;;;1.90;;
15616;SDS011;7908;51.688;7.130;2022-11-15T11:34:54;7.80;;;4.13;;
15616;SDS011;7908;51.688;7.130;2022-11-15T11:37:35;4.73;;;2.07;;
15616;SDS011;7908;51.688;7.130;2022-11-15T11:40:16;3.23;;;1.80;;
15616;SDS011;7908;51.688;7.130;2022-11-15T11:43:01;3.57;;;2.37;;
15616;SDS011;7908;51.688;7.130;2022-11-15T11:48:33;17.90;;;8.77;;
15616;SDS011;7908;51.688;7.130;2022-11-15T11:51:13;11.47;;;4.87;;
15616;SDS011;7908;51.688;7.130;2022-11-15T11:53:49;11.97;;;6.37;;
15616;SDS011;7908;51.688;7.130;2022-11-15T11:56:24;10.60;;;4.80;;
15616;SDS011;7908;51.688;7.130;2022-11-15T11:58:56;5.87;;;2.87;;
15616;SDS011;7908;51.688;7.130;2022-11-15T12:01:32;7.20;;;3.20;;
15616;SDS011;7908;51.688;7.130;2022-11-15T12:04:08;6.87;;;2.90;;
15616;SDS011;7908;51.688;7.130;2022-11-15T12:06:42;11.47;;;5.10;;
15616;SDS011;7908;51.688;7.130;2022-11-15T12:09:19;12.40;;;5.03;;
15616;SDS011;7908;51.688;7.130;2022-11-15T12:11:54;2.93;;;1.50;;
15616;SDS011;7908;51.688;7.130;2022-11-15T12:14:31;2.43;;;1.10;;
15616;SDS011;7908;51.688;7.130;2022-11-15T12:17:04;3.83;;;2.00;;
15616;SDS011;7908;51.688;7.130;2022-11-15T12:19:35;6.10;;;2.83;;
15616;SDS011;7908;51.688;7.130;2022-11-15T12:22:04;7.47;;;4.57;;
15616;SDS011;7908;51.688;7.130;2022-11-15T12:24:43;3.73;;;1.87;;
15616;SDS011;7908;51.688;7.130;2022-11-15T12:27:24;6.27;;;2.90;;
15616;SDS011;7908;51.688;7.130;2022-11-15T12:30:04;4.97;;;1.83;;
15616;SDS011;7908;51.688;7.130;2022-11-15T12:32:49;5.00;;;3.00;;
15616;SDS011;7908;51.688;7.130;2022-11-15T12:35:34;13.00;;;6.83;;
15616;SDS011;7908;51.688;7.130;2022-11-15T12:38:08;4.87;;;2.50;;
15616;SDS011;7908;51.688;7.130;2022-11-15T12:41:11;3.57;;;2.20;;
15616;SDS011;7908;51.688;7.130;2022-11-15T12:43:50;4.80;;;2.53;;
15616;SDS011;7908;51.688;7.130;2022-11-15T12:46:22;4.00;;;1.90;;
15616;SDS011;7908;51.688;7.130;2022-11-15T12:49:41;5.57;;;1.80;;
15616;SDS011;7908;51.688;7.130;2022-11-15T12:52:11;3.23;;;1.60;;
15616;SDS011;7908;51.688;7.130;2022-11-15T12:57:53;4.70;;;1.20;;
15616;SDS011;7908;51.688;7.130;2022-11-15T13:06:03;3.83;;;1.07;;
15616;SDS011;7908;51.688;7.130;2022-11-15T13:08:41;1.90;;;0.70;;
15616;SDS011;7908;51.688;7.130;2022-11-15T13:17:22;3.43;;;0.80;;
15616;SDS011;7908;51.688;7.130;2022-11-15T13:19:58;3.27;;;1.10;;
15616;SDS011;7908;51.688;7.130;2022-11-15T13:22:47;1.43;;;0.90;;
15616;SDS011;7908;51.688;7.130;2022-11-15T13:28:37;3.07;;;0.90;;
15616;SDS011;7908;51.688;7.130;2022-11-15T13:31:18;1.20;;;0.57;;
15616;SDS011;7908;51.688;7.130;2022-11-15T13:33:52;1.60;;;0.70;;
15616;SDS011;7908;51.688;7.130;2022-11-15T13:36:23;1.93;;;1.00;;
15616;SDS011;7908;51.688;7.130;2022-11-15T13:38:55;2.43;;;1.10;;
15616;SDS011;7908;51.688;7.130;2022-11-15T13:41:26;3.50;;;1.00;;
15616;SDS011;7908;51.688;7.130;2022-11-15T13:43:56;1.87;;;0.90;;
15616;SDS011;7908;51.688;7.130;2022-11-15T13:46:29;1.93;;;0.90;;
15616;SDS011;7908;51.688;7.130;2022-11-15T13:48:59;2.63;;;1.00;;
15616;SDS011;7908;51.688;7.130;2022-11-15T13:51:32;1.57;;;0.90;;
15616;SDS011;7908;51.688;7.130;2022-11-15T13:54:07;3.77;;;0.87;;
15616;SDS011;7908;51.688;7.130;2022-11-15T13:56:45;2.43;;;1.10;;
15616;SDS011;7908;51.688;7.130;2022-11-15T13:59:18;2.13;;;0.90;;
15616;SDS011;7908;51.688;7.130;2022-11-15T14:01:53;3.30;;;0.90;;
15616;SDS011;7908;51.688;7.130;2022-11-15T14:04:25;1.90;;;0.70;;
15616;SDS011;7908;51.688;7.130;2022-11-15T14:07:00;5.57;;;1.03;;
15616;SDS011;7908;51.688;7.130;2022-11-15T14:09:34;2.73;;;1.30;;
15616;SDS011;7908;51.688;7.130;2022-11-15T14:12:23;3.70;;;1.20;;
15616;SDS011;7908;51.688;7.130;2022-11-15T14:15:18;3.73;;;1.00;;
15616;SDS011;7908;51.688;7.130;2022-11-15T14:17:55;5.70;;;1.93;;
15616;SDS011;7908;51.688;7.130;2022-11-15T14:20:28;4.80;;;1.53;;
15616;SDS011;7908;51.688;7.130;2022-11-15T14:23:03;4.80;;;1.33;;
15616;SDS011;7908;51.688;7.130;2022-11-15T14:25:51;5.47;;;1.43;;
15616;SDS011;7908;51.688;7.130;2022-11-15T14:28:29;3.10;;;1.20;;
15616;SDS011;7908;51.688;7.130;2022-11-15T14:31:00;3.00;;;0.83;;
15616;SDS011;7908;51.688;7.130;2022-11-15T14:33:31;1.73;;;0.90;;
15616;SDS011;7908;51.688;7.130;2022-11-15T14:36:03;1.93;;;1.00;;
15616;SDS011;7908;51.688;7.130;2022-11-15T14:38:33;2.40;;;0.80;;
15616;SDS011;7908;51.688;7.130;2022-11-15T14:41:02;3.37;;;0.70;;
15616;SDS011;7908;51.688;7.130;2022-11-15T14:43:32;2.83;;;0.90;;
15616;SDS011;7908;51.688;7.130;2022-11-15T14:46:02;2.93;;;1.00;;
15616;SDS011;7908;51.688;7.130;2022-11-15T14:48:33;3.73;;;1.30;;
15616;SDS011;7908;51.688;7.130;2022-11-15T14:51:02;4.60;;;1.37;;
15616;SDS011;7908;51.688;7.130;2022-11-15T14:53:30;1.60;;;0.80;;
15616;SDS011;7908;51.688;7.130;2022-11-15T14:55:59;2.63;;;0.80;;
15616;SDS011;7908;51.688;7.130;2022-11-15T14:58:28;4.27;;;1.03;;
15616;SDS011;7908;51.688;7.130;2022-11-15T15:00:57;2.17;;;0.90;;
15616;SDS011;7908;51.688;7.130;2022-11-15T15:03:26;2.47;;;1.00;;
15616;SDS011;7908;51.688;7.130;2022-11-15T15:05:56;2.07;;;1.03;;
15616;SDS011;7908;51.688;7.130;2022-11-15T15:08:25;2.07;;;0.97;;
15616;SDS011;7908;51.688;7.130;2022-11-15T15:10:55;1.50;;;1.00;;
15616;SDS011;7908;51.688;7.130;2022-11-15T15:13:24;4.27;;;2.13;;
15616;SDS011;7908;51.688;7.130;2022-11-15T15:15:55;4.27;;;2.20;;
15616;SDS011;7908;51.688;7.130;2022-11-15T15:18:24;4.27;;;2.20;;
15616;SDS011;7908;51.688;7.130;2022-11-15T15:20:58;3.17;;;2.20;;
15616;SDS011;7908;51.688;7.130;2022-11-15T15:23:33;5.03;;;1.73;;
15616;SDS011;7908;51.688;7.130;2022-11-15T15:26:06;2.70;;;1.50;;
15616;SDS011;7908;51.688;7.130;2022-11-15T15:28:36;2.87;;;1.90;;
15616;SDS011;7908;51.688;7.130;2022-11-15T15:31:07;2.77;;;1.73;;
15616;SDS011;7908;51.688;7.130;2022-11-15T15:33:37;2.83;;;1.87;;
15616;SDS011;7908;51.688;7.130;2022-11-15T15:36:09;2.30;;;1.50;;
15616;SDS011;7908;51.688;7.130;2022-11-15T15:38:40;3.07;;;1.40;;
15616;SDS011;7908;51.688;7.130;2022-11-15T15:41:10;7.93;;;1.80;;
15616;SDS011;7908;51.688;7.130;2022-11-15T15:43:43;3.27;;;1.50;;